Elon, North Carolina
Current Conditions -  °F | °C
As of 3:25 AM on Monday 22 Dec 2014 (Local Time) from KBUY Reporting Station
Light Rain Light Rain  
Wind Chill: 31°   Ceiling: 2700
Heat Index: 38°   Visibility: 6mi
Dew Point: 34°   Wind: 9mph
Humidity: 86%   Direction: 20°NNE
Pressure: 30.17"   Gusts: NA
Location:  36.1°N, 79.51°W
Report Text: KBUY 220825Z AUTO 02008KT 6SM -RA BR SCT018 BKN027 OVC034 03/01 A3017 RMK AO2 P0000 T00330011
Loading
Personal Weather Stations






























Interactive Weather Map New forecast layout! Learn more

10-Day Weather Forecast

Advertisements
Track Severe Weather on mobile